createdAt,value
2022-10-02T00:01:58.175Z,47.86
2022-10-02T00:04:31.122Z,47.91
2022-10-02T00:07:02.614Z,47.79
2022-10-02T00:09:35.415Z,47.75
2022-10-02T00:12:05.774Z,47.94
2022-10-02T00:14:38.671Z,47.65
2022-10-02T00:17:07.286Z,48.06
2022-10-02T00:19:35.793Z,47.63
2022-10-02T00:22:34.323Z,47.98
2022-10-02T00:25:08.604Z,47.92
2022-10-02T00:28:16.702Z,47.67
2022-10-02T00:30:56.662Z,47.85
2022-10-02T00:33:28.427Z,47.65
2022-10-02T00:36:07.935Z,47.85
2022-10-02T00:38:46.555Z,47.86
2022-10-02T00:42:10.152Z,47.37
2022-10-02T00:44:51.905Z,47.44
2022-10-02T00:47:26.536Z,48.05
2022-10-02T00:50:08.329Z,47.86
2022-10-02T00:52:56.519Z,47.52
2022-10-02T00:55:38.673Z,47.76
2022-10-02T00:58:32.067Z,47.67
2022-10-02T01:01:04.507Z,47.80
2022-10-02T01:03:36.194Z,47.89
2022-10-02T01:06:04.849Z,47.63
2022-10-02T01:08:34.290Z,47.83
2022-10-02T01:11:02.927Z,47.80
2022-10-02T01:13:33.171Z,47.32
2022-10-02T01:16:02.112Z,47.46
2022-10-02T01:18:31.046Z,47.98
2022-10-02T01:21:02.562Z,47.39
2022-10-02T01:23:35.586Z,47.74
2022-10-02T01:26:05.724Z,47.75
2022-10-02T01:28:34.194Z,48.00
2022-10-02T01:31:07.646Z,47.75
2022-10-02T01:33:36.363Z,47.66
2022-10-02T01:36:05.355Z,47.29
2022-10-02T01:38:33.683Z,47.60
2022-10-02T01:41:02.189Z,47.83
2022-10-02T01:43:33.165Z,47.57
2022-10-02T01:46:36.581Z,47.17
2022-10-02T01:49:18.450Z,47.46
2022-10-02T01:52:14.368Z,47.46
2022-10-02T01:54:53.086Z,48.03
2022-10-02T01:57:30.475Z,47.88
2022-10-02T02:00:07.844Z,47.37
2022-10-02T02:02:43.401Z,47.95
2022-10-02T02:05:15.271Z,47.72
2022-10-02T02:07:47.856Z,47.90
2022-10-02T02:10:22.699Z,47.67
2022-10-02T02:12:55.165Z,47.68
2022-10-02T02:15:27.180Z,47.43
2022-10-02T02:17:58.791Z,47.61
2022-10-02T02:20:30.115Z,47.50
2022-10-02T02:23:07.840Z,47.50
2022-10-02T02:25:38.991Z,47.58
2022-10-02T02:28:09.947Z,47.50
2022-10-02T02:30:41.063Z,47.50
2022-10-02T02:33:12.092Z,47.54
2022-10-02T02:35:42.777Z,47.28
2022-10-02T02:38:13.674Z,47.54
2022-10-02T02:40:43.801Z,47.56
2022-10-02T02:43:14.665Z,47.51
2022-10-02T02:45:48.232Z,47.50
2022-10-02T02:48:20.871Z,47.19
2022-10-02T02:50:51.531Z,47.43
2022-10-02T02:53:24.156Z,47.29
2022-10-02T02:55:55.861Z,47.32
2022-10-02T02:58:26.538Z,47.10
2022-10-02T03:00:56.408Z,46.89
2022-10-02T03:03:24.923Z,47.33
2022-10-02T03:05:58.561Z,47.23
2022-10-02T03:08:28.526Z,46.96
2022-10-02T03:11:06.453Z,46.92
2022-10-02T03:13:46.990Z,46.82
2022-10-02T03:16:29.744Z,47.05
2022-10-02T03:19:09.240Z,47.00
2022-10-02T03:21:42.446Z,47.04
2022-10-02T03:24:15.037Z,46.94
2022-10-02T03:26:46.154Z,46.89
2022-10-02T03:29:18.969Z,46.92
2022-10-02T03:31:48.937Z,46.67
2022-10-02T03:34:17.424Z,46.50
2022-10-02T03:36:45.983Z,46.83
2022-10-02T03:39:24.667Z,46.89
2022-10-02T03:41:54.545Z,46.70
2022-10-02T03:44:23.037Z,46.66
2022-10-02T03:46:52.928Z,46.67
2022-10-02T03:49:21.388Z,46.68
2022-10-02T03:51:49.737Z,46.45
2022-10-02T03:54:19.607Z,46.64
2022-10-02T03:56:55.869Z,46.57
2022-10-02T03:59:36.547Z,46.35
2022-10-02T04:02:11.188Z,46.47
2022-10-02T04:04:46.005Z,46.45
2022-10-02T04:07:18.507Z,46.26
2022-10-02T04:09:51.671Z,46.43
2022-10-02T04:12:22.190Z,46.53
2022-10-02T04:14:53.678Z,46.22
2022-10-02T04:17:25.625Z,46.39
2022-10-02T04:19:57.065Z,46.34
2022-10-02T04:22:31.824Z,46.45
2022-10-02T04:25:03.352Z,46.14
2022-10-02T04:27:36.505Z,45.94
2022-10-02T04:30:07.990Z,46.01
2022-10-02T04:32:37.976Z,46.09
2022-10-02T04:35:15.533Z,45.62
2022-10-02T04:38:02.466Z,45.77
2022-10-02T04:40:55.048Z,45.88
2022-10-02T04:43:36.727Z,45.92
2022-10-02T04:46:18.548Z,46.00
2022-10-02T04:49:12.799Z,45.70
2022-10-02T04:51:55.993Z,45.61
2022-10-02T04:54:42.604Z,45.87
2022-10-02T04:57:30.013Z,45.84
2022-10-02T05:00:06.232Z,45.78
2022-10-02T05:02:46.753Z,45.73
2022-10-02T05:05:30.813Z,45.58
2022-10-02T05:08:25.654Z,45.92
2022-10-02T05:11:29.152Z,45.94
2022-10-02T05:14:25.844Z,45.94
2022-10-02T05:17:08.745Z,45.88
2022-10-02T05:19:48.783Z,45.68
2022-10-02T05:22:40.961Z,45.94
2022-10-02T05:25:21.476Z,45.77
2022-10-02T05:28:17.668Z,45.77
2022-10-02T05:30:49.387Z,45.69
2022-10-02T05:33:48.097Z,45.77
2022-10-02T05:36:44.576Z,45.72
2022-10-02T05:39:16.796Z,45.79
2022-10-02T05:41:50.819Z,45.33
2022-10-02T05:44:21.303Z,45.55
2022-10-02T05:46:53.735Z,45.68
2022-10-02T05:49:24.509Z,45.96
2022-10-02T05:51:58.335Z,45.73
2022-10-02T05:54:39.708Z,45.73
2022-10-02T05:57:14.646Z,45.90
2022-10-02T05:59:46.190Z,45.83
2022-10-02T06:02:21.896Z,45.73
2022-10-02T06:04:55.920Z,45.65
2022-10-02T06:07:25.478Z,45.81
2022-10-02T06:09:58.653Z,45.63
2022-10-02T06:12:30.735Z,46.02
2022-10-02T06:15:02.624Z,46.14
2022-10-02T06:17:32.717Z,46.48
2022-10-02T06:20:04.297Z,45.84
2022-10-02T06:22:35.754Z,45.50
2022-10-02T06:25:10.717Z,44.85
2022-10-02T06:27:43.265Z,45.39
2022-10-02T06:30:13.733Z,46.15
2022-10-02T06:32:46.623Z,46.00
2022-10-02T06:35:16.591Z,47.70
2022-10-02T06:37:56.731Z,46.32
2022-10-02T06:40:51.359Z,46.95
2022-10-02T06:43:40.546Z,47.10
2022-10-02T06:46:19.288Z,46.65
2022-10-02T06:48:53.087Z,47.82
2022-10-02T06:51:24.880Z,47.74
2022-10-02T06:54:08.570Z,47.37
2022-10-02T06:56:49.046Z,46.83
2022-10-02T06:59:30.185Z,47.19
2022-10-02T07:02:03.503Z,47.42
2022-10-02T07:04:48.858Z,47.08
2022-10-02T07:07:26.782Z,47.55
2022-10-02T07:10:05.225Z,47.33
2022-10-02T07:12:54.101Z,47.64
2022-10-02T07:15:53.701Z,46.99
2022-10-02T07:18:28.722Z,47.60
2022-10-02T07:21:02.174Z,47.87
2022-10-02T07:23:48.834Z,47.90
2022-10-02T07:26:40.427Z,48.60
2022-10-02T07:29:27.098Z,47.97
2022-10-02T07:32:18.869Z,48.32
2022-10-02T07:34:53.804Z,48.45
2022-10-02T07:37:26.846Z,48.10
2022-10-02T07:40:18.154Z,47.31
2022-10-02T07:43:21.786Z,47.51
2022-10-02T07:45:53.834Z,47.16
2022-10-02T07:48:38.089Z,47.14
2022-10-02T07:51:46.176Z,46.90
2022-10-02T07:54:41.025Z,47.10
2022-10-02T07:57:31.529Z,47.24
2022-10-02T08:00:05.742Z,47.52
2022-10-02T08:02:39.668Z,47.82
2022-10-02T08:05:18.189Z,47.46
2022-10-02T08:07:50.962Z,47.66
2022-10-02T08:10:23.066Z,47.95
2022-10-02T08:12:56.253Z,48.21
2022-10-02T08:15:24.759Z,47.92
2022-10-02T08:17:58.746Z,48.03
2022-10-02T08:20:37.772Z,47.58
2022-10-02T08:23:08.367Z,47.87
2022-10-02T08:25:41.219Z,48.26
2022-10-02T08:28:13.155Z,47.62
2022-10-02T08:30:41.830Z,47.46
2022-10-02T08:33:17.679Z,47.51
2022-10-02T08:36:05.773Z,47.27
2022-10-02T08:38:41.574Z,47.50
2022-10-02T08:41:34.214Z,47.10
2022-10-02T08:45:15.410Z,47.04
2022-10-02T08:48:39.689Z,46.82
2022-10-02T08:51:51.425Z,47.22
2022-10-02T08:55:07.702Z,47.74
2022-10-02T08:58:13.589Z,47.99
2022-10-02T09:00:51.121Z,48.78
2022-10-02T09:04:28.337Z,47.81
2022-10-02T09:07:57.022Z,47.35
2022-10-02T09:10:55.684Z,47.40
2022-10-02T09:14:05.871Z,47.09
2022-10-02T09:16:44.679Z,47.23
2022-10-02T09:19:35.397Z,46.98
2022-10-02T09:22:08.781Z,47.18
2022-10-02T09:25:02.274Z,48.13
2022-10-02T09:28:04.909Z,48.14
2022-10-02T09:31:03.752Z,48.28
2022-10-02T09:34:15.883Z,47.39
2022-10-02T09:37:16.286Z,47.50
2022-10-02T09:40:02.897Z,47.17
2022-10-02T09:43:17.542Z,47.26
2022-10-02T09:46:35.318Z,46.31
2022-10-02T09:49:50.687Z,46.47
2022-10-02T09:53:19.741Z,46.13
2022-10-02T09:56:24.038Z,46.44
2022-10-02T09:59:58.330Z,45.63
2022-10-02T10:03:08.243Z,45.73
2022-10-02T10:06:05.124Z,45.44
2022-10-02T10:09:03.652Z,45.78
2022-10-02T10:12:30.054Z,46.74
2022-10-02T10:15:45.930Z,47.05
2022-10-02T10:19:09.093Z,46.94
2022-10-02T10:22:27.829Z,46.04
2022-10-02T10:25:28.038Z,46.04
2022-10-02T10:28:35.124Z,46.88
2022-10-02T10:31:59.313Z,47.21
2022-10-02T10:35:18.939Z,45.52
2022-10-02T10:38:13.209Z,46.64
2022-10-02T10:40:56.587Z,45.90
2022-10-02T10:43:50.271Z,46.05
2022-10-02T10:46:43.028Z,45.74
2022-10-02T10:49:55.219Z,46.02
2022-10-02T10:52:30.344Z,46.71
2022-10-02T10:55:12.423Z,46.33
2022-10-02T10:57:58.661Z,46.73
2022-10-02T11:00:27.669Z,46.57
2022-10-02T11:03:41.341Z,46.39
2022-10-02T11:06:26.391Z,46.74
2022-10-02T11:09:34.279Z,45.80
2022-10-02T11:12:41.305Z,46.06
2022-10-02T11:15:34.713Z,45.68
2022-10-02T11:18:38.867Z,45.50
2022-10-02T11:21:35.366Z,45.33
2022-10-02T11:24:27.380Z,46.06
2022-10-02T11:27:05.992Z,45.66
2022-10-02T11:30:06.419Z,46.08
2022-10-02T11:33:11.916Z,45.90
2022-10-02T11:35:53.342Z,45.84
2022-10-02T11:38:57.103Z,45.82
2022-10-02T11:41:45.420Z,45.66
2022-10-02T11:44:21.143Z,45.94
2022-10-02T11:47:23.414Z,45.76
2022-10-02T11:50:25.143Z,45.89
2022-10-02T11:53:17.197Z,45.59
2022-10-02T11:55:57.205Z,45.87
2022-10-02T11:58:42.011Z,46.28
2022-10-02T12:01:17.687Z,46.47
2022-10-02T12:04:27.925Z,46.35
2022-10-02T12:07:26.551Z,45.71
2022-10-02T12:10:06.601Z,45.48
2022-10-02T12:12:45.585Z,45.31
2022-10-02T12:15:24.013Z,45.40
2022-10-02T12:18:21.862Z,45.05
2022-10-02T12:21:24.312Z,45.22
2022-10-02T12:24:15.756Z,45.64
2022-10-02T12:27:03.932Z,45.15
2022-10-02T12:29:41.722Z,45.40
2022-10-02T12:32:20.513Z,45.23
2022-10-02T12:34:57.600Z,45.04
2022-10-02T12:37:31.705Z,45.21
2022-10-02T12:40:08.344Z,44.83
2022-10-02T12:43:00.330Z,45.03
2022-10-02T12:45:51.582Z,45.21
2022-10-02T12:48:32.531Z,45.06
2022-10-02T12:51:36.019Z,44.82
2022-10-02T12:54:40.289Z,45.15
2022-10-02T12:57:55.974Z,45.16
2022-10-02T13:00:26.133Z,45.74
2022-10-02T13:03:36.124Z,46.15
2022-10-02T13:07:13.767Z,46.80
2022-10-02T13:09:48.958Z,46.36
2022-10-02T13:12:37.713Z,46.01
2022-10-02T13:15:37.428Z,46.02
2022-10-02T13:18:38.869Z,46.13
2022-10-02T13:21:14.278Z,46.48
2022-10-02T13:23:47.831Z,47.06
2022-10-02T13:26:24.296Z,46.47
2022-10-02T13:29:25.591Z,46.52
2022-10-02T13:32:10.761Z,46.35
2022-10-02T13:35:01.418Z,46.64
2022-10-02T13:37:38.746Z,45.44
2022-10-02T13:40:21.773Z,45.50
2022-10-02T13:43:10.937Z,45.52
2022-10-02T13:45:46.134Z,45.25
2022-10-02T13:48:19.714Z,45.37
2022-10-02T13:50:53.786Z,45.48
2022-10-02T13:54:03.079Z,44.91
2022-10-02T13:56:43.442Z,44.65
2022-10-02T13:59:46.972Z,45.28
2022-10-02T14:02:30.785Z,45.04
2022-10-02T14:05:04.492Z,45.54
2022-10-02T14:07:52.372Z,44.86
2022-10-02T14:10:34.035Z,44.97
2022-10-02T14:13:18.948Z,44.39
2022-10-02T14:16:07.723Z,44.34
2022-10-02T14:19:03.175Z,44.27
2022-10-02T14:21:34.924Z,44.78
2022-10-02T14:24:50.216Z,45.47
2022-10-02T14:27:54.706Z,44.60
2022-10-02T14:30:24.031Z,45.04
2022-10-02T14:33:00.032Z,45.40
2022-10-02T14:35:35.825Z,44.91
2022-10-02T14:38:51.214Z,45.23
2022-10-02T14:41:38.344Z,45.83
2022-10-02T14:44:52.926Z,45.49
2022-10-02T14:47:35.203Z,45.34
2022-10-02T14:50:25.665Z,45.17
2022-10-02T14:53:35.095Z,45.15
2022-10-02T14:56:31.789Z,45.22
2022-10-02T14:59:12.559Z,44.95
2022-10-02T15:01:44.791Z,45.17
2022-10-02T15:04:30.271Z,45.15
2022-10-02T15:07:04.879Z,45.60
2022-10-02T15:09:43.909Z,44.72
2022-10-02T15:12:16.486Z,45.25
2022-10-02T15:15:03.785Z,44.99
2022-10-02T15:17:57.044Z,44.71
2022-10-02T15:20:32.212Z,44.68
2022-10-02T15:23:01.856Z,45.13
2022-10-02T15:25:51.047Z,45.17
2022-10-02T15:28:36.383Z,45.41
2022-10-02T15:31:12.190Z,44.20
2022-10-02T15:33:42.283Z,44.36
2022-10-02T15:37:00.081Z,45.21
2022-10-02T15:40:17.019Z,44.68
2022-10-02T15:42:56.284Z,44.93
2022-10-02T15:45:50.212Z,44.67
2022-10-02T15:48:50.288Z,45.22
2022-10-02T15:51:33.727Z,44.91
2022-10-02T15:54:12.283Z,45.16
2022-10-02T15:57:08.737Z,45.28
2022-10-02T15:59:54.577Z,45.58
2022-10-02T16:02:41.518Z,45.52
2022-10-02T16:05:20.782Z,45.44
2022-10-02T16:08:41.451Z,45.75
2022-10-02T16:11:58.941Z,46.81
2022-10-02T16:14:37.786Z,46.13
2022-10-02T16:17:28.964Z,46.31
2022-10-02T16:20:47.904Z,46.07
2022-10-02T16:23:29.865Z,44.11
2022-10-02T16:26:16.818Z,45.58
2022-10-02T16:28:53.129Z,44.52
2022-10-02T16:31:39.995Z,45.41
2022-10-02T16:34:23.515Z,44.97
2022-10-02T16:36:53.445Z,45.24
2022-10-02T16:39:39.971Z,44.71
2022-10-02T16:42:22.352Z,44.54
2022-10-02T16:45:33.180Z,44.51
2022-10-02T16:48:07.884Z,44.77
2022-10-02T16:51:04.860Z,43.95
2022-10-02T16:53:36.983Z,44.36
2022-10-02T16:56:12.368Z,44.07
2022-10-02T16:58:46.231Z,44.64
2022-10-02T17:01:24.727Z,44.40
2022-10-02T17:04:19.728Z,44.14
2022-10-02T17:06:51.713Z,45.14
2022-10-02T17:09:22.444Z,44.84
2022-10-02T17:11:53.875Z,44.45
2022-10-02T17:14:26.150Z,44.05
2022-10-02T17:16:56.570Z,44.41
2022-10-02T17:19:28.898Z,44.93
2022-10-02T17:22:01.142Z,45.28
2022-10-02T17:24:36.480Z,45.34
2022-10-02T17:27:15.207Z,45.14
2022-10-02T17:29:54.141Z,45.80
2022-10-02T17:32:39.082Z,45.15
2022-10-02T17:35:16.283Z,45.14
2022-10-02T17:38:10.685Z,45.99
2022-10-02T17:40:40.918Z,45.59
2022-10-02T17:43:15.914Z,45.98
2022-10-02T17:45:48.865Z,45.56
2022-10-02T17:48:28.924Z,45.49
2022-10-02T17:51:31.285Z,45.71
2022-10-02T17:54:38.541Z,45.76
2022-10-02T17:57:25.335Z,45.90
2022-10-02T18:00:12.004Z,45.35
2022-10-02T18:03:36.860Z,46.06
2022-10-02T18:06:12.914Z,45.78
2022-10-02T18:09:11.341Z,46.15
2022-10-02T18:12:03.995Z,45.50
2022-10-02T18:15:02.992Z,45.69
2022-10-02T18:17:41.606Z,45.79
2022-10-02T18:20:18.170Z,45.58
2022-10-02T18:23:02.556Z,45.30
2022-10-02T18:25:39.726Z,46.00
2022-10-02T18:28:32.784Z,45.38
2022-10-02T18:31:13.139Z,45.94
2022-10-02T18:34:14.274Z,45.88
2022-10-02T18:37:00.174Z,45.85
2022-10-02T18:39:40.666Z,45.59
2022-10-02T18:42:41.134Z,45.51
2022-10-02T18:45:27.212Z,46.23
2022-10-02T18:48:22.521Z,46.05
2022-10-02T18:51:16.740Z,45.70
2022-10-02T18:54:03.463Z,45.69
2022-10-02T18:56:58.026Z,45.46
2022-10-02T18:59:38.163Z,46.57
2022-10-02T19:02:21.801Z,46.01
2022-10-02T19:05:04.782Z,46.07
2022-10-02T19:07:39.658Z,46.05
2022-10-02T19:10:40.433Z,45.66
2022-10-02T19:13:18.401Z,45.69
2022-10-02T19:15:49.510Z,46.22
2022-10-02T19:18:20.727Z,46.22
2022-10-02T19:20:59.555Z,45.82
2022-10-02T19:23:32.110Z,46.06
2022-10-02T19:26:04.857Z,46.13
2022-10-02T19:28:33.736Z,45.08
2022-10-02T19:31:05.465Z,45.84
2022-10-02T19:33:46.915Z,44.96
2022-10-02T19:36:19.134Z,45.64
2022-10-02T19:38:53.535Z,45.94
2022-10-02T19:41:22.828Z,45.72
2022-10-02T19:43:56.528Z,45.85
2022-10-02T19:46:37.275Z,45.79
2022-10-02T19:49:05.809Z,45.88
2022-10-02T19:51:44.196Z,45.94
2022-10-02T19:54:17.027Z,46.10
2022-10-02T19:56:46.576Z,46.09
2022-10-02T19:59:18.428Z,46.40
2022-10-02T20:01:51.352Z,46.40
2022-10-02T20:04:21.961Z,46.26
2022-10-02T20:06:53.554Z,46.05
2022-10-02T20:09:27.039Z,45.95
2022-10-02T20:11:58.811Z,46.29
2022-10-02T20:14:30.008Z,46.27
2022-10-02T20:17:10.845Z,46.16
2022-10-02T20:19:43.476Z,45.77
2022-10-02T20:22:24.992Z,45.70
2022-10-02T20:24:57.883Z,45.90
2022-10-02T20:27:34.998Z,45.77
2022-10-02T20:30:07.243Z,45.90
2022-10-02T20:32:39.773Z,45.61
2022-10-02T20:35:14.670Z,45.65
2022-10-02T20:37:43.121Z,45.85
2022-10-02T20:40:15.895Z,45.44
2022-10-02T20:42:50.211Z,45.47
2022-10-02T20:45:18.786Z,46.02
2022-10-02T20:49:06.438Z,45.03
2022-10-02T20:51:50.513Z,45.41
2022-10-02T20:54:40.426Z,45.15
2022-10-02T20:58:00.054Z,45.21
2022-10-02T21:00:30.852Z,45.87
2022-10-02T21:03:37.684Z,44.93
2022-10-02T21:07:05.844Z,45.11
2022-10-02T21:10:09.997Z,45.27
2022-10-02T21:13:33.517Z,45.20
2022-10-02T21:16:36.291Z,45.11
2022-10-02T21:19:36.660Z,45.04
2022-10-02T21:22:33.244Z,45.46
2022-10-02T21:25:39.127Z,45.26
2022-10-02T21:28:41.880Z,45.14
2022-10-02T21:31:36.438Z,45.61
2022-10-02T21:34:16.282Z,45.12
2022-10-02T21:36:48.906Z,45.79
2022-10-02T21:40:01.673Z,45.32
2022-10-02T21:43:35.390Z,45.30
2022-10-02T21:46:44.564Z,45.27
2022-10-02T21:50:21.106Z,45.31
2022-10-02T21:53:37.822Z,44.84
2022-10-02T21:56:54.704Z,44.86
2022-10-02T22:00:13.796Z,44.99
2022-10-02T22:03:23.451Z,44.75
2022-10-02T22:06:26.881Z,44.83
2022-10-02T22:09:27.634Z,44.78
2022-10-02T22:12:12.662Z,44.77
2022-10-02T22:14:43.175Z,45.16
2022-10-02T22:17:19.506Z,44.87
2022-10-02T22:20:21.359Z,44.95
2022-10-02T22:23:08.627Z,44.92
2022-10-02T22:25:48.482Z,44.84
2022-10-02T22:28:25.071Z,44.78
2022-10-02T22:31:15.259Z,44.79
2022-10-02T22:33:54.275Z,44.83
2022-10-02T22:37:05.404Z,44.40
2022-10-02T22:39:38.124Z,44.80
2022-10-02T22:42:10.917Z,45.33
2022-10-02T22:44:43.060Z,45.23
2022-10-02T22:47:13.602Z,45.09
2022-10-02T22:49:44.445Z,44.79
2022-10-02T22:52:18.250Z,44.87
2022-10-02T22:54:50.143Z,44.89
2022-10-02T22:57:22.507Z,44.84
2022-10-02T22:59:54.650Z,45.06
2022-10-02T23:02:29.735Z,44.60
2022-10-02T23:05:05.611Z,44.69
2022-10-02T23:07:40.594Z,44.62
2022-10-02T23:10:20.906Z,44.57
2022-10-02T23:12:58.175Z,44.95
2022-10-02T23:15:32.945Z,44.69
2022-10-02T23:18:03.459Z,45.64
2022-10-02T23:20:35.162Z,45.47
2022-10-02T23:23:08.102Z,45.43
2022-10-02T23:25:44.302Z,44.84
2022-10-02T23:28:17.962Z,45.37
2022-10-02T23:30:49.379Z,45.10
2022-10-02T23:33:26.021Z,44.98
2022-10-02T23:35:57.546Z,45.20
2022-10-02T23:38:29.621Z,45.01
2022-10-02T23:41:23.865Z,44.64
2022-10-02T23:44:00.819Z,44.75
2022-10-02T23:46:33.469Z,45.00
2022-10-02T23:49:01.881Z,44.93
2022-10-02T23:51:40.287Z,44.69
2022-10-02T23:54:34.296Z,44.81
2022-10-02T23:57:21.715Z,44.45
